createdAt,value
2019-03-15T00:01:51.351Z,6.44
2019-03-15T00:04:20.553Z,6.44
2019-03-15T00:06:50.319Z,6.43
2019-03-15T00:09:19.674Z,6.41
2019-03-15T00:11:48.795Z,6.41
2019-03-15T00:14:18.043Z,6.41
2019-03-15T00:16:47.240Z,6.41
2019-03-15T00:19:16.434Z,6.39
2019-03-15T00:21:45.606Z,6.39
2019-03-15T00:24:14.745Z,6.37
2019-03-15T00:26:43.878Z,6.38
2019-03-15T00:29:13.112Z,6.35
2019-03-15T00:31:42.454Z,6.35
2019-03-15T00:34:11.579Z,6.35
2019-03-15T00:36:40.702Z,6.35
2019-03-15T00:39:09.887Z,6.35
2019-03-15T00:41:39.024Z,6.35
2019-03-15T00:44:08.271Z,6.35
2019-03-15T00:46:37.356Z,6.34
2019-03-15T00:49:06.618Z,6.34
2019-03-15T00:51:35.869Z,6.37
2019-03-15T00:54:05.071Z,6.35
2019-03-15T00:56:34.208Z,6.35
2019-03-15T00:59:03.601Z,6.36
2019-03-15T01:01:32.657Z,6.36
2019-03-15T01:04:01.803Z,6.39
2019-03-15T01:06:31.064Z,6.39
2019-03-15T01:09:00.199Z,6.39
2019-03-15T01:11:29.357Z,6.39
2019-03-15T01:13:58.460Z,6.42
2019-03-15T01:16:27.605Z,6.43
2019-03-15T01:18:56.667Z,6.45
2019-03-15T01:21:25.908Z,6.44
2019-03-15T01:23:55.256Z,6.46
2019-03-15T01:26:24.395Z,6.46
2019-03-15T01:28:53.636Z,6.50
2019-03-15T01:31:22.795Z,6.49
2019-03-15T01:33:51.999Z,6.56
2019-03-15T01:36:21.232Z,6.56
2019-03-15T01:38:50.387Z,6.57
2019-03-15T01:41:19.447Z,6.57
2019-03-15T01:43:48.615Z,6.57
2019-03-15T01:46:17.836Z,6.57
2019-03-15T01:48:47.047Z,6.59
2019-03-15T01:51:16.281Z,6.60
2019-03-15T01:53:45.412Z,6.59
2019-03-15T01:56:14.546Z,6.57
2019-03-15T01:58:43.757Z,6.56
2019-03-15T02:01:12.969Z,6.53
2019-03-15T02:03:42.105Z,6.53
2019-03-15T02:06:11.294Z,6.49
2019-03-15T02:08:40.349Z,6.43
2019-03-15T02:11:09.547Z,6.43
2019-03-15T02:13:38.651Z,6.43
2019-03-15T02:16:08.767Z,6.44
2019-03-15T02:18:37.975Z,6.40
2019-03-15T02:21:07.238Z,6.41
2019-03-15T02:23:36.441Z,6.42
2019-03-15T02:26:05.585Z,6.38
2019-03-15T02:28:34.672Z,6.38
2019-03-15T02:31:03.822Z,6.37
2019-03-15T02:33:33.570Z,6.35
2019-03-15T02:36:03.073Z,6.33
2019-03-15T02:38:32.261Z,6.32
2019-03-15T02:41:01.461Z,6.34
2019-03-15T02:43:30.612Z,6.35
2019-03-15T02:45:59.791Z,6.34
2019-03-15T02:48:28.825Z,6.32
2019-03-15T02:50:57.942Z,6.30
2019-03-15T02:53:27.056Z,6.32
2019-03-15T02:55:56.143Z,6.31
2019-03-15T02:58:25.376Z,6.33
2019-03-15T03:00:54.538Z,6.38
2019-03-15T03:03:23.596Z,6.38
2019-03-15T03:05:52.774Z,6.41
2019-03-15T03:08:21.982Z,6.51
2019-03-15T03:10:51.031Z,6.52
2019-03-15T03:13:20.251Z,6.55
2019-03-15T03:15:49.436Z,6.59
2019-03-15T03:18:18.636Z,6.61
2019-03-15T03:20:48.338Z,6.61
2019-03-15T03:23:17.745Z,6.63
2019-03-15T03:25:46.877Z,6.68
2019-03-15T03:28:16.040Z,6.69
2019-03-15T03:30:46.838Z,6.72
2019-03-15T03:33:16.308Z,6.76
2019-03-15T03:35:45.460Z,6.76
2019-03-15T03:38:14.692Z,6.82
2019-03-15T03:40:43.790Z,6.84
2019-03-15T03:43:13.015Z,6.84
2019-03-15T03:45:42.209Z,6.83
2019-03-15T03:48:11.327Z,6.83
2019-03-15T03:50:40.583Z,6.83
2019-03-15T03:53:09.773Z,6.83
2019-03-15T03:55:38.981Z,6.88
2019-03-15T03:58:08.200Z,6.88
2019-03-15T04:00:37.389Z,6.88
2019-03-15T04:03:06.717Z,6.93
2019-03-15T04:05:36.118Z,6.94
2019-03-15T04:08:05.318Z,6.97
2019-03-15T04:10:34.575Z,7.01
2019-03-15T04:13:03.911Z,7.05
2019-03-15T04:15:33.121Z,7.03
2019-03-15T04:18:02.318Z,7.19
2019-03-15T04:20:31.463Z,7.19
2019-03-15T04:23:00.622Z,7.19
2019-03-15T04:25:29.839Z,7.17
2019-03-15T04:27:58.968Z,7.17
2019-03-15T04:30:28.187Z,7.19
2019-03-15T04:32:57.253Z,7.19
2019-03-15T04:35:26.527Z,7.21
2019-03-15T04:37:55.589Z,7.22
2019-03-15T04:40:24.792Z,7.22
2019-03-15T04:42:54.037Z,7.22
2019-03-15T04:45:23.156Z,7.18
2019-03-15T04:47:52.354Z,7.25
2019-03-15T04:50:21.762Z,7.25
2019-03-15T04:52:50.887Z,7.26
2019-03-15T04:55:20.010Z,7.30
2019-03-15T04:57:49.246Z,7.30
2019-03-15T05:00:18.378Z,7.31
2019-03-15T05:02:47.501Z,7.37
2019-03-15T05:05:16.653Z,7.43
2019-03-15T05:07:45.839Z,7.45
2019-03-15T05:10:15.137Z,7.47
2019-03-15T05:12:44.485Z,7.49
2019-03-15T05:15:13.686Z,7.53
2019-03-15T05:17:42.716Z,7.54
2019-03-15T05:20:12.180Z,7.57
2019-03-15T05:22:41.292Z,7.66
2019-03-15T05:25:11.373Z,7.69
2019-03-15T05:27:40.463Z,7.76
2019-03-15T05:30:11.417Z,7.83
2019-03-15T05:32:40.541Z,7.91
2019-03-15T05:35:09.771Z,7.91
2019-03-15T05:37:38.963Z,7.93
2019-03-15T05:40:08.554Z,7.89
2019-03-15T05:42:37.713Z,7.85
2019-03-15T05:45:09.882Z,7.90
2019-03-15T05:47:39.096Z,7.93
2019-03-15T05:50:11.028Z,8.03
2019-03-15T05:52:40.289Z,8.08
2019-03-15T05:55:14.281Z,8.15
2019-03-15T05:57:43.446Z,8.21
2019-03-15T06:00:14.258Z,8.24
2019-03-15T06:02:43.473Z,8.32
2019-03-15T06:05:13.210Z,8.34
2019-03-15T06:07:42.408Z,8.37
2019-03-15T06:10:12.663Z,8.44
2019-03-15T06:12:42.717Z,8.53
2019-03-15T06:15:24.023Z,8.60
2019-03-15T06:17:53.178Z,8.70
2019-03-15T06:20:22.399Z,8.79
2019-03-15T06:22:51.457Z,8.88
2019-03-15T06:25:20.712Z,9.02
2019-03-15T06:27:49.912Z,9.06
2019-03-15T06:30:19.089Z,9.14
2019-03-15T06:32:48.426Z,9.21
2019-03-15T06:35:17.629Z,9.36
2019-03-15T06:37:46.837Z,9.29
2019-03-15T06:40:16.021Z,9.35
2019-03-15T06:42:45.236Z,9.42
2019-03-15T06:45:15.075Z,9.68
2019-03-15T06:47:44.346Z,9.73
2019-03-15T06:50:13.976Z,9.77
2019-03-15T06:52:43.263Z,9.87
2019-03-15T06:55:12.493Z,10.00
2019-03-15T06:57:41.830Z,10.01
2019-03-15T07:00:13.530Z,10.14
2019-03-15T07:02:42.971Z,10.12
2019-03-15T07:05:12.747Z,10.20
2019-03-15T07:07:42.152Z,10.27
2019-03-15T07:10:12.378Z,10.34
2019-03-15T07:12:41.602Z,10.34
2019-03-15T07:15:12.805Z,10.48
2019-03-15T07:17:42.175Z,10.69
2019-03-15T07:20:16.319Z,10.98
2019-03-15T07:22:45.521Z,11.24
2019-03-15T07:25:14.847Z,11.48
2019-03-15T07:27:43.928Z,11.61
2019-03-15T07:30:16.376Z,11.44
2019-03-15T07:32:45.636Z,11.33
2019-03-15T07:35:14.840Z,11.73
2019-03-15T07:37:45.721Z,12.14
2019-03-15T07:40:15.033Z,12.58
2019-03-15T07:42:44.161Z,12.51
2019-03-15T07:45:14.285Z,12.46
2019-03-15T07:47:43.356Z,12.29
2019-03-15T07:50:14.847Z,11.79
2019-03-15T07:52:44.072Z,11.79
2019-03-15T07:55:13.312Z,11.86
2019-03-15T07:57:42.535Z,11.70
2019-03-15T08:00:13.993Z,11.67
2019-03-15T08:02:43.225Z,11.60
2019-03-15T08:05:12.423Z,11.55
2019-03-15T08:07:45.383Z,11.34
2019-03-15T08:10:13.502Z,11.14
2019-03-15T08:12:42.744Z,11.48
2019-03-15T08:15:13.375Z,11.49
2019-03-15T08:17:42.626Z,11.47
2019-03-15T08:20:13.442Z,11.40
2019-03-15T08:22:42.635Z,11.43
2019-03-15T08:25:12.517Z,11.42
2019-03-15T08:27:41.723Z,11.48
2019-03-15T08:30:15.574Z,11.85
2019-03-15T08:32:44.871Z,11.90
2019-03-15T08:35:14.362Z,12.45
2019-03-15T08:37:43.510Z,12.46
2019-03-15T08:40:13.748Z,11.92
2019-03-15T08:42:42.945Z,11.87
2019-03-15T08:45:20.488Z,11.65
2019-03-15T08:47:49.690Z,11.43
2019-03-15T08:50:20.089Z,11.51
2019-03-15T08:52:49.323Z,11.80
2019-03-15T08:55:18.535Z,11.94
2019-03-15T08:57:47.736Z,12.01
2019-03-15T09:00:29.015Z,11.77
2019-03-15T09:02:58.163Z,12.02
2019-03-15T09:05:27.366Z,12.22
2019-03-15T09:07:56.606Z,12.64
2019-03-15T09:10:26.093Z,12.62
2019-03-15T09:12:55.422Z,12.37
2019-03-15T09:15:24.945Z,12.39
2019-03-15T09:17:54.095Z,11.96
2019-03-15T09:20:23.277Z,11.59
2019-03-15T09:22:52.512Z,11.47
2019-03-15T09:25:21.655Z,11.85
2019-03-15T09:27:50.862Z,11.74
2019-03-15T09:30:24.419Z,12.02
2019-03-15T09:32:51.084Z,12.53
2019-03-15T09:35:20.355Z,12.80
2019-03-15T09:37:49.641Z,13.19
2019-03-15T09:40:18.931Z,13.35
2019-03-15T09:42:48.130Z,13.56
2019-03-15T09:45:18.587Z,13.91
2019-03-15T09:47:47.797Z,14.83
2019-03-15T09:50:26.594Z,14.33
2019-03-15T09:52:48.361Z,15.49
2019-03-15T09:55:17.582Z,16.70
2019-03-15T09:57:46.753Z,16.77
2019-03-15T10:00:16.975Z,16.27
2019-03-15T10:02:46.187Z,16.53
2019-03-15T10:05:16.054Z,17.48
2019-03-15T10:07:45.334Z,17.26
2019-03-15T10:10:19.130Z,17.40
2019-03-15T10:12:48.741Z,17.00
2019-03-15T10:15:18.382Z,16.40
2019-03-15T10:17:47.650Z,16.13
2019-03-15T10:20:16.864Z,16.41
2019-03-15T10:22:46.103Z,16.25
2019-03-15T10:25:16.317Z,16.03
2019-03-15T10:27:45.824Z,15.73
2019-03-15T10:30:19.033Z,16.52
2019-03-15T10:32:48.498Z,16.86
2019-03-15T10:35:18.015Z,17.32
2019-03-15T10:37:47.200Z,17.68
2019-03-15T10:40:18.486Z,17.73
2019-03-15T10:42:47.819Z,17.75
2019-03-15T10:45:17.190Z,17.92
2019-03-15T10:47:46.395Z,17.99
2019-03-15T10:50:20.143Z,19.00
2019-03-15T10:52:49.375Z,18.60
2019-03-15T10:55:20.652Z,17.47
2019-03-15T10:57:49.382Z,17.27
2019-03-15T11:00:20.553Z,16.90
2019-03-15T11:02:49.877Z,16.00
2019-03-15T11:05:19.396Z,16.66
2019-03-15T11:07:48.697Z,16.60
2019-03-15T11:10:17.966Z,17.45
2019-03-15T11:12:47.095Z,18.11
2019-03-15T11:15:16.970Z,18.27
2019-03-15T11:17:46.099Z,18.58
2019-03-15T11:20:15.368Z,18.96
2019-03-15T11:22:44.775Z,19.15
2019-03-15T11:25:14.041Z,19.23
2019-03-15T11:27:43.245Z,18.74
2019-03-15T11:30:13.833Z,18.32
2019-03-15T11:32:43.060Z,17.63
2019-03-15T11:35:12.594Z,16.91
2019-03-15T11:37:41.870Z,16.25
2019-03-15T11:40:19.349Z,15.92
2019-03-15T11:42:48.984Z,16.41
2019-03-15T11:45:33.214Z,16.87
2019-03-15T11:48:04.381Z,16.46
2019-03-15T11:50:33.594Z,17.93
2019-03-15T11:53:02.737Z,16.42
2019-03-15T11:55:31.891Z,16.02
2019-03-15T11:58:01.095Z,15.48
2019-03-15T12:00:30.230Z,15.51
2019-03-15T12:02:59.474Z,15.42
2019-03-15T12:05:28.655Z,15.54
2019-03-15T12:07:57.853Z,16.38
2019-03-15T12:10:27.077Z,18.19
2019-03-15T12:12:56.282Z,18.53
2019-03-15T12:15:25.403Z,19.30
2019-03-15T12:17:54.830Z,19.79
2019-03-15T12:20:24.068Z,18.95
2019-03-15T12:22:53.297Z,17.90
2019-03-15T12:25:22.549Z,17.18
2019-03-15T12:27:51.796Z,16.73
2019-03-15T12:30:33.062Z,16.53
2019-03-15T12:33:02.325Z,16.26
2019-03-15T12:35:31.461Z,15.85
2019-03-15T12:38:00.639Z,15.61
2019-03-15T12:40:30.075Z,15.30
2019-03-15T12:42:59.342Z,14.94
2019-03-15T12:45:28.435Z,14.13
2019-03-15T12:47:57.586Z,13.85
2019-03-15T12:50:26.863Z,14.13
2019-03-15T12:52:56.090Z,14.30
2019-03-15T12:55:25.202Z,14.34
2019-03-15T12:57:54.514Z,14.61
2019-03-15T13:00:23.756Z,14.53
2019-03-15T13:02:53.021Z,14.43
2019-03-15T13:05:22.157Z,14.58
2019-03-15T13:07:51.399Z,14.23
2019-03-15T13:10:21.995Z,14.29
2019-03-15T13:12:51.267Z,14.19
2019-03-15T13:15:20.504Z,13.98
2019-03-15T13:17:49.690Z,14.21
2019-03-15T13:20:19.375Z,14.57
2019-03-15T13:22:48.656Z,14.79
2019-03-15T13:25:17.885Z,14.58
2019-03-15T13:27:47.068Z,14.71
2019-03-15T13:30:17.759Z,14.08
2019-03-15T13:32:46.971Z,14.39
2019-03-15T13:35:16.176Z,14.79
2019-03-15T13:37:46.350Z,14.76
2019-03-15T13:40:17.390Z,14.63
2019-03-15T13:42:46.690Z,14.51
2019-03-15T13:45:16.632Z,14.59
2019-03-15T13:47:45.817Z,14.64
2019-03-15T13:50:17.258Z,14.83
2019-03-15T13:52:46.506Z,14.97
2019-03-15T13:55:15.705Z,14.88
2019-03-15T13:57:44.920Z,14.68
2019-03-15T14:00:19.983Z,14.75
2019-03-15T14:02:49.150Z,14.69
2019-03-15T14:05:18.519Z,14.42
2019-03-15T14:07:47.675Z,14.40
2019-03-15T14:10:18.040Z,14.37
2019-03-15T14:12:47.283Z,14.09
2019-03-15T14:15:18.282Z,14.13
2019-03-15T14:17:47.493Z,13.97
2019-03-15T14:20:16.699Z,13.65
2019-03-15T14:22:45.856Z,13.66
2019-03-15T14:25:17.633Z,13.59
2019-03-15T14:27:46.846Z,13.39
2019-03-15T14:30:16.266Z,13.27
2019-03-15T14:32:45.330Z,13.15
2019-03-15T14:35:14.633Z,13.06
2019-03-15T14:37:43.915Z,12.92
2019-03-15T14:40:13.431Z,12.86
2019-03-15T14:42:42.723Z,12.78
2019-03-15T14:45:15.324Z,12.57
2019-03-15T14:47:44.491Z,12.69
2019-03-15T14:50:14.859Z,12.71
2019-03-15T14:52:44.179Z,12.78
2019-03-15T14:55:15.137Z,12.85
2019-03-15T14:57:51.847Z,13.04
2019-03-15T15:02:57.205Z,12.83
2019-03-15T15:05:26.378Z,12.76
2019-03-15T15:07:55.609Z,12.75
2019-03-15T15:10:24.855Z,12.68
2019-03-15T15:12:54.110Z,12.69
2019-03-15T15:15:42.639Z,12.88
2019-03-15T15:18:11.721Z,13.09
2019-03-15T15:20:40.993Z,13.08
2019-03-15T15:23:10.195Z,13.20
2019-03-15T15:25:39.504Z,13.23
2019-03-15T15:28:08.651Z,13.19
2019-03-15T15:30:37.758Z,13.13
2019-03-15T15:33:07.015Z,13.18
2019-03-15T15:35:36.229Z,13.25
2019-03-15T15:38:05.432Z,13.23
2019-03-15T15:40:34.708Z,13.12
2019-03-15T15:43:03.841Z,13.17
2019-03-15T15:45:32.977Z,13.15
2019-03-15T15:48:02.216Z,13.38
2019-03-15T15:50:31.360Z,13.35
2019-03-15T15:53:00.550Z,13.27
2019-03-15T15:55:29.782Z,13.29
2019-03-15T15:57:58.911Z,13.20
2019-03-15T16:00:28.102Z,13.29
2019-03-15T16:02:57.348Z,13.29
2019-03-15T16:05:26.545Z,13.12
2019-03-15T16:07:56.793Z,12.93
2019-03-15T16:10:26.285Z,12.90
2019-03-15T16:12:55.487Z,12.83
2019-03-15T16:15:24.770Z,12.76
2019-03-15T16:17:54.618Z,12.65
2019-03-15T16:20:23.750Z,12.59
2019-03-15T16:22:52.953Z,12.53
2019-03-15T16:25:22.197Z,12.45
2019-03-15T16:27:51.454Z,12.40
2019-03-15T16:30:23.476Z,12.33
2019-03-15T16:32:52.759Z,12.29
2019-03-15T16:35:21.968Z,12.22
2019-03-15T16:37:51.161Z,12.11
2019-03-15T16:40:20.456Z,12.07
2019-03-15T16:42:49.674Z,12.05
2019-03-15T16:45:42.987Z,11.99
2019-03-15T16:48:12.189Z,11.94
2019-03-15T16:50:41.425Z,11.91
2019-03-15T16:53:10.638Z,11.87
2019-03-15T16:55:39.875Z,11.84
2019-03-15T16:58:09.039Z,11.80
2019-03-15T17:00:38.195Z,11.78
2019-03-15T17:03:07.430Z,11.78
2019-03-15T17:05:36.642Z,11.73
2019-03-15T17:08:05.727Z,11.70
2019-03-15T17:10:35.022Z,11.64
2019-03-15T17:13:04.280Z,11.65
2019-03-15T17:15:33.440Z,11.63
2019-03-15T17:18:02.772Z,11.59
2019-03-15T17:20:31.971Z,11.56
2019-03-15T17:23:01.296Z,11.51
2019-03-15T17:25:30.566Z,11.49
2019-03-15T17:27:59.781Z,11.44
2019-03-15T17:30:29.170Z,11.41
2019-03-15T17:32:59.744Z,11.40
2019-03-15T17:35:28.945Z,11.38
2019-03-15T17:37:58.176Z,11.40
2019-03-15T17:40:27.407Z,11.38
2019-03-15T17:42:56.609Z,11.31
2019-03-15T17:45:25.913Z,11.29
2019-03-15T17:47:55.161Z,11.23
2019-03-15T17:50:27.833Z,11.21
2019-03-15T17:52:57.165Z,11.19
2019-03-15T17:55:26.310Z,11.22
2019-03-15T17:57:55.656Z,11.18
2019-03-15T18:00:29.025Z,11.15
2019-03-15T18:02:58.189Z,11.18
2019-03-15T18:05:27.251Z,11.15
2019-03-15T18:07:56.463Z,11.13
2019-03-15T18:10:25.702Z,11.10
2019-03-15T18:12:54.975Z,11.07
2019-03-15T18:15:24.207Z,11.07
2019-03-15T18:17:53.480Z,11.05
2019-03-15T18:20:22.784Z,11.07
2019-03-15T18:22:52.010Z,11.11
2019-03-15T18:25:21.243Z,11.12
2019-03-15T18:27:50.862Z,11.12
2019-03-15T18:30:20.070Z,11.12
2019-03-15T18:32:49.261Z,11.11
2019-03-15T18:35:32.638Z,11.09
2019-03-15T18:37:49.517Z,11.10
2019-03-15T18:40:20.058Z,11.11
2019-03-15T18:42:49.356Z,11.06
2019-03-15T18:45:19.271Z,11.01
2019-03-15T18:47:48.525Z,10.95
2019-03-15T18:50:23.606Z,10.92
2019-03-15T18:52:52.910Z,10.87
2019-03-15T18:55:22.306Z,10.85
2019-03-15T18:57:51.601Z,10.85
2019-03-15T19:00:23.093Z,10.81
2019-03-15T19:02:52.394Z,10.79
2019-03-15T19:05:21.593Z,10.80
2019-03-15T19:07:50.749Z,10.80
2019-03-15T19:10:20.003Z,10.79
2019-03-15T19:12:49.270Z,10.80
2019-03-15T19:15:22.148Z,10.79
2019-03-15T19:17:51.463Z,10.77
2019-03-15T19:20:20.960Z,10.75
2019-03-15T19:22:50.174Z,10.71
2019-03-15T19:25:19.444Z,10.70
2019-03-15T19:27:48.659Z,10.68
2019-03-15T19:30:19.916Z,10.67
2019-03-15T19:32:49.154Z,10.64
2019-03-15T19:35:18.379Z,10.61
2019-03-15T19:37:47.591Z,10.59
2019-03-15T19:40:18.239Z,10.56
2019-03-15T19:42:47.464Z,10.52
2019-03-15T19:45:19.783Z,10.49
2019-03-15T19:47:49.026Z,10.48
2019-03-15T19:50:24.629Z,10.47
2019-03-15T19:52:53.696Z,10.47
2019-03-15T19:55:23.012Z,10.45
2019-03-15T19:57:52.178Z,10.43
2019-03-15T20:00:22.209Z,10.38
2019-03-15T20:02:51.450Z,10.35
2019-03-15T20:05:20.659Z,10.35
2019-03-15T20:07:50.064Z,10.34
2019-03-15T20:10:19.810Z,10.35
2019-03-15T20:12:48.967Z,10.34
2019-03-15T20:15:18.453Z,10.37
2019-03-15T20:17:47.698Z,10.40
2019-03-15T20:20:18.308Z,10.35
2019-03-15T20:22:47.550Z,10.31
2019-03-15T20:25:17.494Z,10.29
2019-03-15T20:27:46.697Z,10.27
2019-03-15T20:30:22.106Z,10.26
2019-03-15T20:32:48.818Z,10.25
2019-03-15T20:35:18.107Z,10.20
2019-03-15T20:37:47.276Z,10.19
2019-03-15T20:40:16.801Z,10.19
2019-03-15T20:42:45.960Z,10.18
2019-03-15T20:45:17.720Z,10.19
2019-03-15T20:47:46.955Z,10.22
2019-03-15T20:50:16.163Z,10.23
2019-03-15T20:52:45.440Z,10.21
2019-03-15T20:55:14.632Z,10.23
2019-03-15T20:57:43.693Z,10.25
2019-03-15T21:00:34.728Z,10.26
2019-03-15T21:02:53.881Z,10.27
2019-03-15T21:05:23.121Z,10.28
2019-03-15T21:07:52.282Z,10.27
2019-03-15T21:10:21.491Z,10.28
2019-03-15T21:12:50.867Z,10.28
2019-03-15T21:15:20.114Z,10.31
2019-03-15T21:17:49.348Z,10.36
2019-03-15T21:20:22.301Z,10.35
2019-03-15T21:22:50.678Z,10.35
2019-03-15T21:25:19.909Z,10.42
2019-03-15T21:27:54.139Z,10.43
2019-03-15T21:30:22.164Z,10.40
2019-03-15T21:32:51.373Z,10.40
2019-03-15T21:35:20.600Z,10.40
2019-03-15T21:37:49.835Z,10.44
2019-03-15T21:40:20.157Z,10.43
2019-03-15T21:42:49.419Z,10.42
2019-03-15T21:45:18.584Z,10.42
2019-03-15T21:47:47.798Z,10.42
2019-03-15T21:50:18.437Z,10.43
2019-03-15T21:52:50.430Z,10.47
2019-03-15T21:55:19.647Z,10.51
2019-03-15T21:57:48.905Z,10.51
2019-03-15T22:00:20.025Z,10.54
2019-03-15T22:02:49.231Z,10.54
2019-03-15T22:05:18.520Z,10.56
2019-03-15T22:07:47.778Z,10.58
2019-03-15T22:10:17.813Z,10.59
2019-03-15T22:12:47.211Z,10.57
2019-03-15T22:15:16.550Z,10.56
2019-03-15T22:17:45.709Z,10.59
2019-03-15T22:20:16.387Z,10.55
2019-03-15T22:22:45.590Z,10.55
2019-03-15T22:25:14.810Z,10.57
2019-03-15T22:27:44.061Z,10.58
2019-03-15T22:30:14.932Z,10.56
2019-03-15T22:32:44.143Z,10.58
2019-03-15T22:35:14.956Z,10.57
2019-03-15T22:37:44.021Z,10.57
2019-03-15T22:40:14.022Z,10.61
2019-03-15T22:42:43.283Z,10.63
2019-03-15T22:45:13.758Z,10.62
2019-03-15T22:47:42.970Z,10.66
2019-03-15T22:50:13.515Z,10.71
2019-03-15T22:52:42.726Z,10.74
2019-03-15T22:55:12.241Z,10.73
2019-03-15T22:57:41.483Z,10.75
2019-03-15T23:00:20.592Z,10.75
2019-03-15T23:02:49.910Z,10.77
2019-03-15T23:05:19.229Z,10.73
2019-03-15T23:07:48.411Z,10.77
2019-03-15T23:10:17.644Z,10.76
2019-03-15T23:12:46.865Z,10.76
2019-03-15T23:15:16.100Z,10.74
2019-03-15T23:17:45.375Z,10.75
2019-03-15T23:20:14.788Z,10.75
2019-03-15T23:22:43.987Z,10.76
2019-03-15T23:25:13.236Z,10.73
2019-03-15T23:27:42.373Z,10.75
2019-03-15T23:30:16.543Z,10.73
2019-03-15T23:32:45.788Z,10.70
2019-03-15T23:35:15.018Z,10.69
2019-03-15T23:37:44.086Z,10.67
2019-03-15T23:40:14.364Z,10.65
2019-03-15T23:42:43.536Z,10.64
2019-03-15T23:45:12.945Z,10.69
2019-03-15T23:47:42.186Z,10.66
2019-03-15T23:50:13.566Z,10.66
2019-03-15T23:52:42.792Z,10.67
2019-03-15T23:55:12.212Z,10.66
2019-03-15T23:57:41.350Z,10.64
